sensor_id;sensor_type;location;lat;lon;timestamp;P1;durP1;ratioP1;P2;durP2;ratioP2
54805;SDS011;62866;55.776;37.496;2022-10-16T00:01:57;3.90;;;2.33;;
54805;SDS011;62866;55.776;37.496;2022-10-16T00:04:22;5.32;;;2.42;;
54805;SDS011;62866;55.776;37.496;2022-10-16T00:06:48;4.32;;;2.63;;
54805;SDS011;62866;55.776;37.496;2022-10-16T00:09:13;5.50;;;2.60;;
54805;SDS011;62866;55.776;37.496;2022-10-16T00:11:39;5.85;;;2.53;;
54805;SDS011;62866;55.776;37.496;2022-10-16T00:14:12;6.38;;;2.50;;
54805;SDS011;62866;55.776;37.496;2022-10-16T00:16:39;4.35;;;2.28;;
54805;SDS011;62866;55.776;37.496;2022-10-16T00:19:05;5.95;;;2.40;;
54805;SDS011;62866;55.776;37.496;2022-10-16T00:21:31;4.78;;;2.67;;
54805;SDS011;62866;55.776;37.496;2022-10-16T00:23:58;5.00;;;2.28;;
54805;SDS011;62866;55.776;37.496;2022-10-16T00:26:30;4.15;;;2.20;;
54805;SDS011;62866;55.776;37.496;2022-10-16T00:28:56;3.60;;;1.58;;
54805;SDS011;62866;55.776;37.496;2022-10-16T00:31:23;5.80;;;2.20;;
54805;SDS011;62866;55.776;37.496;2022-10-16T00:33:49;3.08;;;1.77;;
54805;SDS011;62866;55.776;37.496;2022-10-16T00:36:16;11.35;;;2.42;;
54805;SDS011;62866;55.776;37.496;2022-10-16T00:38:43;5.18;;;2.08;;
54805;SDS011;62866;55.776;37.496;2022-10-16T00:41:11;5.90;;;2.60;;
54805;SDS011;62866;55.776;37.496;2022-10-16T00:43:46;4.57;;;2.50;;
54805;SDS011;62866;55.776;37.496;2022-10-16T00:48:43;5.22;;;2.15;;
54805;SDS011;62866;55.776;37.496;2022-10-16T00:51:13;3.65;;;2.42;;
54805;SDS011;62866;55.776;37.496;2022-10-16T00:53:39;4.97;;;2.50;;
54805;SDS011;62866;55.776;37.496;2022-10-16T00:56:05;4.43;;;2.13;;
54805;SDS011;62866;55.776;37.496;2022-10-16T00:58:31;6.18;;;2.47;;
54805;SDS011;62866;55.776;37.496;2022-10-16T01:00:57;3.40;;;1.77;;
54805;SDS011;62866;55.776;37.496;2022-10-16T01:03:33;4.85;;;1.77;;
54805;SDS011;62866;55.776;37.496;2022-10-16T01:06:35;3.47;;;1.67;;
54805;SDS011;62866;55.776;37.496;2022-10-16T01:09:10;4.10;;;1.88;;
54805;SDS011;62866;55.776;37.496;2022-10-16T01:14:51;5.97;;;2.25;;
54805;SDS011;62866;55.776;37.496;2022-10-16T01:17:23;6.53;;;2.63;;
54805;SDS011;62866;55.776;37.496;2022-10-16T01:20:10;3.20;;;1.48;;
54805;SDS011;62866;55.776;37.496;2022-10-16T01:22:48;5.13;;;2.20;;
54805;SDS011;62866;55.776;37.496;2022-10-16T01:28:05;5.57;;;2.33;;
54805;SDS011;62866;55.776;37.496;2022-10-16T01:30:34;3.80;;;2.42;;
54805;SDS011;62866;55.776;37.496;2022-10-16T01:33:43;4.60;;;1.67;;
54805;SDS011;62866;55.776;37.496;2022-10-16T01:35:58;4.90;;;2.55;;
54805;SDS011;62866;55.776;37.496;2022-10-16T01:38:35;4.75;;;2.17;;
54805;SDS011;62866;55.776;37.496;2022-10-16T01:41:23;4.65;;;2.38;;
54805;SDS011;62866;55.776;37.496;2022-10-16T01:46:23;4.40;;;2.20;;
54805;SDS011;62866;55.776;37.496;2022-10-16T01:48:51;5.15;;;2.35;;
54805;SDS011;62866;55.776;37.496;2022-10-16T01:51:17;4.75;;;2.03;;
54805;SDS011;62866;55.776;37.496;2022-10-16T01:53:48;5.25;;;1.92;;
54805;SDS011;62866;55.776;37.496;2022-10-16T01:56:17;4.38;;;2.08;;
54805;SDS011;62866;55.776;37.496;2022-10-16T01:58:47;3.05;;;2.22;;
54805;SDS011;62866;55.776;37.496;2022-10-16T02:01:18;3.08;;;2.05;;
54805;SDS011;62866;55.776;37.496;2022-10-16T02:03:47;4.38;;;2.15;;
54805;SDS011;62866;55.776;37.496;2022-10-16T02:06:17;5.60;;;2.63;;
54805;SDS011;62866;55.776;37.496;2022-10-16T02:08:43;5.00;;;2.47;;
54805;SDS011;62866;55.776;37.496;2022-10-16T02:11:09;3.85;;;2.13;;
54805;SDS011;62866;55.776;37.496;2022-10-16T02:16:43;5.65;;;2.22;;
54805;SDS011;62866;55.776;37.496;2022-10-16T02:19:11;4.50;;;2.35;;
54805;SDS011;62866;55.776;37.496;2022-10-16T02:21:40;3.70;;;1.92;;
54805;SDS011;62866;55.776;37.496;2022-10-16T02:24:23;5.03;;;2.45;;
54805;SDS011;62866;55.776;37.496;2022-10-16T02:27:10;5.18;;;2.13;;
54805;SDS011;62866;55.776;37.496;2022-10-16T02:29:47;2.85;;;1.95;;
54805;SDS011;62866;55.776;37.496;2022-10-16T02:32:20;7.72;;;2.30;;
54805;SDS011;62866;55.776;37.496;2022-10-16T02:34:48;5.03;;;2.15;;
54805;SDS011;62866;55.776;37.496;2022-10-16T02:37:16;7.22;;;2.13;;
54805;SDS011;62866;55.776;37.496;2022-10-16T02:39:43;5.60;;;2.08;;
54805;SDS011;62866;55.776;37.496;2022-10-16T02:42:10;5.50;;;1.98;;
54805;SDS011;62866;55.776;37.496;2022-10-16T02:44:37;3.92;;;2.20;;
54805;SDS011;62866;55.776;37.496;2022-10-16T02:47:02;5.60;;;2.40;;
54805;SDS011;62866;55.776;37.496;2022-10-16T02:49:28;4.65;;;2.53;;
54805;SDS011;62866;55.776;37.496;2022-10-16T02:51:53;4.60;;;2.40;;
54805;SDS011;62866;55.776;37.496;2022-10-16T02:54:19;4.10;;;2.08;;
54805;SDS011;62866;55.776;37.496;2022-10-16T02:56:44;4.57;;;2.17;;
54805;SDS011;62866;55.776;37.496;2022-10-16T02:59:10;4.13;;;2.40;;
54805;SDS011;62866;55.776;37.496;2022-10-16T03:01:35;5.10;;;2.22;;
54805;SDS011;62866;55.776;37.496;2022-10-16T03:04:01;6.57;;;2.35;;
54805;SDS011;62866;55.776;37.496;2022-10-16T03:06:27;5.30;;;2.67;;
54805;SDS011;62866;55.776;37.496;2022-10-16T03:08:52;6.18;;;2.97;;
54805;SDS011;62866;55.776;37.496;2022-10-16T03:11:18;11.35;;;3.25;;
54805;SDS011;62866;55.776;37.496;2022-10-16T03:13:43;7.90;;;3.10;;
54805;SDS011;62866;55.776;37.496;2022-10-16T03:16:09;6.60;;;2.80;;
54805;SDS011;62866;55.776;37.496;2022-10-16T03:18:34;7.03;;;3.17;;
54805;SDS011;62866;55.776;37.496;2022-10-16T03:21:00;7.22;;;3.35;;
54805;SDS011;62866;55.776;37.496;2022-10-16T03:23:26;7.30;;;3.25;;
54805;SDS011;62866;55.776;37.496;2022-10-16T03:25:51;8.10;;;3.70;;
54805;SDS011;62866;55.776;37.496;2022-10-16T03:28:17;10.05;;;3.33;;
54805;SDS011;62866;55.776;37.496;2022-10-16T03:30:43;3.97;;;1.67;;
54805;SDS011;62866;55.776;37.496;2022-10-16T03:33:09;7.95;;;3.63;;
54805;SDS011;62866;55.776;37.496;2022-10-16T03:35:34;5.50;;;2.42;;
54805;SDS011;62866;55.776;37.496;2022-10-16T03:38:00;12.70;;;4.15;;
54805;SDS011;62866;55.776;37.496;2022-10-16T03:40:26;9.43;;;3.92;;
54805;SDS011;62866;55.776;37.496;2022-10-16T03:42:52;7.82;;;3.40;;
54805;SDS011;62866;55.776;37.496;2022-10-16T03:45:20;10.60;;;3.65;;
54805;SDS011;62866;55.776;37.496;2022-10-16T03:47:45;9.05;;;3.88;;
54805;SDS011;62866;55.776;37.496;2022-10-16T03:50:12;8.35;;;3.72;;
54805;SDS011;62866;55.776;37.496;2022-10-16T03:52:37;4.85;;;3.03;;
54805;SDS011;62866;55.776;37.496;2022-10-16T03:55:03;5.80;;;2.92;;
54805;SDS011;62866;55.776;37.496;2022-10-16T03:57:29;11.50;;;4.07;;
54805;SDS011;62866;55.776;37.496;2022-10-16T03:59:54;7.93;;;4.13;;
54805;SDS011;62866;55.776;37.496;2022-10-16T04:02:20;10.23;;;3.50;;
54805;SDS011;62866;55.776;37.496;2022-10-16T04:04:45;6.15;;;3.60;;
54805;SDS011;62866;55.776;37.496;2022-10-16T04:07:11;8.60;;;3.25;;
54805;SDS011;62866;55.776;37.496;2022-10-16T04:09:36;8.88;;;4.35;;
54805;SDS011;62866;55.776;37.496;2022-10-16T04:12:02;5.45;;;3.13;;
54805;SDS011;62866;55.776;37.496;2022-10-16T04:14:28;10.20;;;4.07;;
54805;SDS011;62866;55.776;37.496;2022-10-16T04:16:53;6.45;;;3.30;;
54805;SDS011;62866;55.776;37.496;2022-10-16T04:19:19;7.30;;;3.97;;
54805;SDS011;62866;55.776;37.496;2022-10-16T04:21:44;9.07;;;3.40;;
54805;SDS011;62866;55.776;37.496;2022-10-16T04:24:10;8.93;;;3.75;;
54805;SDS011;62866;55.776;37.496;2022-10-16T04:26:36;8.13;;;3.35;;
54805;SDS011;62866;55.776;37.496;2022-10-16T04:29:02;8.88;;;3.67;;
54805;SDS011;62866;55.776;37.496;2022-10-16T04:31:28;9.70;;;3.95;;
54805;SDS011;62866;55.776;37.496;2022-10-16T04:33:53;10.90;;;4.03;;
54805;SDS011;62866;55.776;37.496;2022-10-16T04:36:19;10.52;;;3.63;;
54805;SDS011;62866;55.776;37.496;2022-10-16T04:38:44;7.13;;;3.50;;
54805;SDS011;62866;55.776;37.496;2022-10-16T04:41:10;11.45;;;3.40;;
54805;SDS011;62866;55.776;37.496;2022-10-16T04:43:35;6.35;;;2.97;;
54805;SDS011;62866;55.776;37.496;2022-10-16T04:46:01;10.50;;;3.60;;
54805;SDS011;62866;55.776;37.496;2022-10-16T04:48:26;7.90;;;3.20;;
54805;SDS011;62866;55.776;37.496;2022-10-16T04:50:52;9.60;;;3.03;;
54805;SDS011;62866;55.776;37.496;2022-10-16T04:53:18;10.18;;;2.85;;
54805;SDS011;62866;55.776;37.496;2022-10-16T04:55:43;12.10;;;3.63;;
54805;SDS011;62866;55.776;37.496;2022-10-16T04:58:09;6.63;;;2.95;;
54805;SDS011;62866;55.776;37.496;2022-10-16T05:00:34;6.32;;;3.13;;
54805;SDS011;62866;55.776;37.496;2022-10-16T05:03:00;6.72;;;2.90;;
54805;SDS011;62866;55.776;37.496;2022-10-16T05:05:27;5.18;;;2.70;;
54805;SDS011;62866;55.776;37.496;2022-10-16T05:07:53;5.78;;;3.03;;
54805;SDS011;62866;55.776;37.496;2022-10-16T05:10:18;5.47;;;3.20;;
54805;SDS011;62866;55.776;37.496;2022-10-16T05:12:44;5.03;;;2.75;;
54805;SDS011;62866;55.776;37.496;2022-10-16T05:15:10;5.97;;;3.20;;
54805;SDS011;62866;55.776;37.496;2022-10-16T05:17:35;6.65;;;3.00;;
54805;SDS011;62866;55.776;37.496;2022-10-16T05:20:01;8.23;;;3.00;;
54805;SDS011;62866;55.776;37.496;2022-10-16T05:22:26;4.60;;;2.10;;
54805;SDS011;62866;55.776;37.496;2022-10-16T05:24:52;7.32;;;3.47;;
54805;SDS011;62866;55.776;37.496;2022-10-16T05:27:17;6.07;;;2.95;;
54805;SDS011;62866;55.776;37.496;2022-10-16T05:29:46;5.47;;;2.85;;
54805;SDS011;62866;55.776;37.496;2022-10-16T05:32:13;7.43;;;3.25;;
54805;SDS011;62866;55.776;37.496;2022-10-16T05:34:39;8.07;;;3.30;;
54805;SDS011;62866;55.776;37.496;2022-10-16T05:37:05;7.40;;;3.00;;
54805;SDS011;62866;55.776;37.496;2022-10-16T05:39:30;4.82;;;2.50;;
54805;SDS011;62866;55.776;37.496;2022-10-16T05:41:56;6.00;;;2.75;;
54805;SDS011;62866;55.776;37.496;2022-10-16T05:44:21;6.97;;;4.03;;
54805;SDS011;62866;55.776;37.496;2022-10-16T05:46:47;4.43;;;2.60;;
54805;SDS011;62866;55.776;37.496;2022-10-16T05:49:12;5.95;;;3.47;;
54805;SDS011;62866;55.776;37.496;2022-10-16T05:51:38;6.93;;;2.72;;
54805;SDS011;62866;55.776;37.496;2022-10-16T05:54:03;7.50;;;2.67;;
54805;SDS011;62866;55.776;37.496;2022-10-16T05:56:29;6.32;;;2.65;;
54805;SDS011;62866;55.776;37.496;2022-10-16T05:58:55;5.40;;;2.95;;
54805;SDS011;62866;55.776;37.496;2022-10-16T06:01:20;4.07;;;2.28;;
54805;SDS011;62866;55.776;37.496;2022-10-16T06:03:49;5.47;;;2.67;;
54805;SDS011;62866;55.776;37.496;2022-10-16T06:06:21;5.45;;;2.47;;
54805;SDS011;62866;55.776;37.496;2022-10-16T06:08:49;4.32;;;1.98;;
54805;SDS011;62866;55.776;37.496;2022-10-16T06:11:16;6.55;;;2.50;;
54805;SDS011;62866;55.776;37.496;2022-10-16T06:13:43;2.90;;;2.03;;
54805;SDS011;62866;55.776;37.496;2022-10-16T06:16:11;6.72;;;2.33;;
54805;SDS011;62866;55.776;37.496;2022-10-16T06:18:37;8.25;;;3.78;;
54805;SDS011;62866;55.776;37.496;2022-10-16T06:21:07;3.85;;;2.42;;
54805;SDS011;62866;55.776;37.496;2022-10-16T06:23:34;3.80;;;2.40;;
54805;SDS011;62866;55.776;37.496;2022-10-16T06:26:10;4.90;;;3.10;;
54805;SDS011;62866;55.776;37.496;2022-10-16T06:28:37;5.30;;;2.90;;
54805;SDS011;62866;55.776;37.496;2022-10-16T06:31:03;7.20;;;2.70;;
54805;SDS011;62866;55.776;37.496;2022-10-16T06:33:30;5.85;;;2.60;;
54805;SDS011;62866;55.776;37.496;2022-10-16T06:36:03;4.45;;;2.40;;
54805;SDS011;62866;55.776;37.496;2022-10-16T06:40:56;6.25;;;2.70;;
54805;SDS011;62866;55.776;37.496;2022-10-16T06:43:22;5.30;;;3.20;;
54805;SDS011;62866;55.776;37.496;2022-10-16T06:45:54;3.92;;;3.05;;
54805;SDS011;62866;55.776;37.496;2022-10-16T06:48:21;6.22;;;3.30;;
54805;SDS011;62866;55.776;37.496;2022-10-16T06:50:57;6.45;;;3.17;;
54805;SDS011;62866;55.776;37.496;2022-10-16T06:53:45;3.83;;;2.47;;
54805;SDS011;62866;55.776;37.496;2022-10-16T06:56:18;6.32;;;3.25;;
54805;SDS011;62866;55.776;37.496;2022-10-16T06:58:48;7.35;;;3.17;;
54805;SDS011;62866;55.776;37.496;2022-10-16T07:01:15;5.43;;;4.15;;
54805;SDS011;62866;55.776;37.496;2022-10-16T07:03:42;7.93;;;3.72;;
54805;SDS011;62866;55.776;37.496;2022-10-16T07:06:09;5.15;;;2.67;;
54805;SDS011;62866;55.776;37.496;2022-10-16T07:08:37;5.22;;;2.92;;
54805;SDS011;62866;55.776;37.496;2022-10-16T07:11:06;4.43;;;3.15;;
54805;SDS011;62866;55.776;37.496;2022-10-16T07:13:36;5.53;;;3.70;;
54805;SDS011;62866;55.776;37.496;2022-10-16T07:18:32;5.50;;;3.88;;
54805;SDS011;62866;55.776;37.496;2022-10-16T07:21:08;5.22;;;3.05;;
54805;SDS011;62866;55.776;37.496;2022-10-16T07:23:35;6.10;;;2.92;;
54805;SDS011;62866;55.776;37.496;2022-10-16T07:26:01;6.07;;;3.03;;
54805;SDS011;62866;55.776;37.496;2022-10-16T07:28:27;4.57;;;3.08;;
54805;SDS011;62866;55.776;37.496;2022-10-16T07:30:53;7.28;;;3.38;;
54805;SDS011;62866;55.776;37.496;2022-10-16T07:33:19;3.00;;;2.65;;
54805;SDS011;62866;55.776;37.496;2022-10-16T07:35:49;3.38;;;3.05;;
54805;SDS011;62866;55.776;37.496;2022-10-16T07:38:18;5.80;;;3.90;;
54805;SDS011;62866;55.776;37.496;2022-10-16T07:40:44;7.32;;;3.75;;
54805;SDS011;62866;55.776;37.496;2022-10-16T07:43:09;5.25;;;4.03;;
54805;SDS011;62866;55.776;37.496;2022-10-16T07:45:35;7.88;;;3.55;;
54805;SDS011;62866;55.776;37.496;2022-10-16T07:48:01;12.40;;;3.65;;
54805;SDS011;62866;55.776;37.496;2022-10-16T07:50:27;5.20;;;3.35;;
54805;SDS011;62866;55.776;37.496;2022-10-16T07:52:52;5.93;;;3.33;;
54805;SDS011;62866;55.776;37.496;2022-10-16T07:55:18;5.82;;;3.20;;
54805;SDS011;62866;55.776;37.496;2022-10-16T07:57:43;9.90;;;2.67;;
54805;SDS011;62866;55.776;37.496;2022-10-16T08:00:09;6.35;;;2.85;;
54805;SDS011;62866;55.776;37.496;2022-10-16T08:02:39;4.97;;;3.00;;
54805;SDS011;62866;55.776;37.496;2022-10-16T08:05:05;4.65;;;3.10;;
54805;SDS011;62866;55.776;37.496;2022-10-16T08:07:31;5.75;;;2.70;;
54805;SDS011;62866;55.776;37.496;2022-10-16T08:09:57;5.20;;;2.80;;
54805;SDS011;62866;55.776;37.496;2022-10-16T08:12:24;6.63;;;3.40;;
54805;SDS011;62866;55.776;37.496;2022-10-16T08:14:50;5.35;;;2.67;;
54805;SDS011;62866;55.776;37.496;2022-10-16T08:17:15;8.45;;;2.97;;
54805;SDS011;62866;55.776;37.496;2022-10-16T08:19:43;6.70;;;2.88;;
54805;SDS011;62866;55.776;37.496;2022-10-16T08:22:15;5.20;;;2.65;;
54805;SDS011;62866;55.776;37.496;2022-10-16T08:24:41;9.25;;;4.22;;
54805;SDS011;62866;55.776;37.496;2022-10-16T08:27:06;5.78;;;2.78;;
54805;SDS011;62866;55.776;37.496;2022-10-16T08:29:33;7.15;;;3.30;;
54805;SDS011;62866;55.776;37.496;2022-10-16T08:31:59;6.75;;;3.33;;
54805;SDS011;62866;55.776;37.496;2022-10-16T08:34:25;8.13;;;3.05;;
54805;SDS011;62866;55.776;37.496;2022-10-16T08:36:52;5.93;;;3.33;;
54805;SDS011;62866;55.776;37.496;2022-10-16T08:39:19;5.22;;;2.53;;
54805;SDS011;62866;55.776;37.496;2022-10-16T08:44:21;4.45;;;2.42;;
54805;SDS011;62866;55.776;37.496;2022-10-16T08:49:38;6.03;;;2.40;;
54805;SDS011;62866;55.776;37.496;2022-10-16T08:52:10;4.70;;;2.38;;
54805;SDS011;62866;55.776;37.496;2022-10-16T08:54:41;5.65;;;2.42;;
54805;SDS011;62866;55.776;37.496;2022-10-16T08:57:12;3.97;;;2.60;;
54805;SDS011;62866;55.776;37.496;2022-10-16T08:59:41;4.35;;;2.20;;
54805;SDS011;62866;55.776;37.496;2022-10-16T09:05:24;5.38;;;2.08;;
54805;SDS011;62866;55.776;37.496;2022-10-16T09:13:29;3.90;;;1.77;;
54805;SDS011;62866;55.776;37.496;2022-10-16T09:21:36;10.68;;;2.65;;
54805;SDS011;62866;55.776;37.496;2022-10-16T09:24:39;5.53;;;1.95;;
54805;SDS011;62866;55.776;37.496;2022-10-16T09:26:58;4.00;;;1.52;;
54805;SDS011;62866;55.776;37.496;2022-10-16T09:29:24;4.28;;;1.98;;
54805;SDS011;62866;55.776;37.496;2022-10-16T09:31:50;2.70;;;1.60;;
54805;SDS011;62866;55.776;37.496;2022-10-16T09:37:05;3.08;;;1.92;;
54805;SDS011;62866;55.776;37.496;2022-10-16T09:39:44;3.58;;;1.33;;
54805;SDS011;62866;55.776;37.496;2022-10-16T09:42:21;5.78;;;2.58;;
54805;SDS011;62866;55.776;37.496;2022-10-16T09:44:52;6.53;;;1.50;;
54805;SDS011;62866;55.776;37.496;2022-10-16T09:47:22;2.30;;;1.50;;
54805;SDS011;62866;55.776;37.496;2022-10-16T09:49:54;2.55;;;1.58;;
54805;SDS011;62866;55.776;37.496;2022-10-16T09:52:31;4.65;;;2.03;;
54805;SDS011;62866;55.776;37.496;2022-10-16T09:55:30;3.00;;;2.05;;
54805;SDS011;62866;55.776;37.496;2022-10-16T09:57:55;3.97;;;2.15;;
54805;SDS011;62866;55.776;37.496;2022-10-16T10:00:21;4.72;;;2.08;;
54805;SDS011;62866;55.776;37.496;2022-10-16T10:02:48;3.42;;;1.35;;
54805;SDS011;62866;55.776;37.496;2022-10-16T10:05:21;3.30;;;1.73;;
54805;SDS011;62866;55.776;37.496;2022-10-16T10:07:53;2.13;;;1.30;;
54805;SDS011;62866;55.776;37.496;2022-10-16T10:10:27;5.22;;;1.90;;
54805;SDS011;62866;55.776;37.496;2022-10-16T10:12:55;6.07;;;2.25;;
54805;SDS011;62866;55.776;37.496;2022-10-16T10:15:22;2.13;;;1.55;;
54805;SDS011;62866;55.776;37.496;2022-10-16T10:17:50;2.42;;;1.58;;
54805;SDS011;62866;55.776;37.496;2022-10-16T10:22:59;1.63;;;1.33;;
54805;SDS011;62866;55.776;37.496;2022-10-16T10:25:53;2.38;;;1.67;;
54805;SDS011;62866;55.776;37.496;2022-10-16T10:37:03;3.70;;;1.83;;
54805;SDS011;62866;55.776;37.496;2022-10-16T10:39:42;2.53;;;1.50;;
54805;SDS011;62866;55.776;37.496;2022-10-16T10:45:14;5.28;;;1.88;;
54805;SDS011;62866;55.776;37.496;2022-10-16T10:50:26;3.28;;;1.60;;
54805;SDS011;62866;55.776;37.496;2022-10-16T10:52:59;2.67;;;1.48;;
54805;SDS011;62866;55.776;37.496;2022-10-16T10:58:21;3.75;;;2.30;;
54805;SDS011;62866;55.776;37.496;2022-10-16T11:01:12;3.70;;;2.00;;
54805;SDS011;62866;55.776;37.496;2022-10-16T11:03:54;3.33;;;1.50;;
54805;SDS011;62866;55.776;37.496;2022-10-16T11:06:40;3.72;;;1.60;;
54805;SDS011;62866;55.776;37.496;2022-10-16T11:09:34;3.17;;;1.80;;
54805;SDS011;62866;55.776;37.496;2022-10-16T11:12:14;9.63;;;2.22;;
54805;SDS011;62866;55.776;37.496;2022-10-16T11:15:48;3.53;;;1.70;;
54805;SDS011;62866;55.776;37.496;2022-10-16T11:17:52;4.95;;;1.50;;
54805;SDS011;62866;55.776;37.496;2022-10-16T11:20:31;3.22;;;1.98;;
54805;SDS011;62866;55.776;37.496;2022-10-16T11:23:02;4.43;;;2.30;;
54805;SDS011;62866;55.776;37.496;2022-10-16T11:25:52;3.15;;;1.70;;
54805;SDS011;62866;55.776;37.496;2022-10-16T11:28:20;3.00;;;1.98;;
54805;SDS011;62866;55.776;37.496;2022-10-16T11:35:51;3.55;;;1.75;;
54805;SDS011;62866;55.776;37.496;2022-10-16T11:38:36;4.47;;;2.07;;
54805;SDS011;62866;55.776;37.496;2022-10-16T11:44:38;2.75;;;1.52;;
54805;SDS011;62866;55.776;37.496;2022-10-16T11:50:06;6.25;;;2.15;;
54805;SDS011;62866;55.776;37.496;2022-10-16T11:55:37;7.43;;;2.22;;
54805;SDS011;62866;55.776;37.496;2022-10-16T11:58:12;4.80;;;1.70;;
54805;SDS011;62866;55.776;37.496;2022-10-16T12:03:42;6.05;;;1.92;;
54805;SDS011;62866;55.776;37.496;2022-10-16T12:08:57;4.93;;;1.55;;
54805;SDS011;62866;55.776;37.496;2022-10-16T12:11:31;3.58;;;1.95;;
54805;SDS011;62866;55.776;37.496;2022-10-16T12:14:19;4.43;;;2.10;;
54805;SDS011;62866;55.776;37.496;2022-10-16T12:16:57;4.00;;;1.80;;
54805;SDS011;62866;55.776;37.496;2022-10-16T12:19:30;5.15;;;2.15;;
54805;SDS011;62866;55.776;37.496;2022-10-16T12:22:00;4.47;;;1.70;;
54805;SDS011;62866;55.776;37.496;2022-10-16T12:24:38;4.82;;;2.58;;
54805;SDS011;62866;55.776;37.496;2022-10-16T12:27:22;4.15;;;1.80;;
54805;SDS011;62866;55.776;37.496;2022-10-16T12:29:59;3.28;;;1.88;;
54805;SDS011;62866;55.776;37.496;2022-10-16T12:34:56;3.95;;;1.60;;
54805;SDS011;62866;55.776;37.496;2022-10-16T12:37:23;3.45;;;2.03;;
54805;SDS011;62866;55.776;37.496;2022-10-16T12:39:51;2.55;;;1.55;;
54805;SDS011;62866;55.776;37.496;2022-10-16T12:42:39;4.97;;;2.35;;
54805;SDS011;62866;55.776;37.496;2022-10-16T12:45:22;5.47;;;2.45;;
54805;SDS011;62866;55.776;37.496;2022-10-16T12:47:56;1.98;;;1.33;;
54805;SDS011;62866;55.776;37.496;2022-10-16T12:52:55;4.97;;;2.05;;
54805;SDS011;62866;55.776;37.496;2022-10-16T12:55:21;4.25;;;2.35;;
54805;SDS011;62866;55.776;37.496;2022-10-16T13:29:23;2.85;;;1.60;;
54805;SDS011;62866;55.776;37.496;2022-10-16T13:31:54;5.47;;;2.03;;
54805;SDS011;62866;55.776;37.496;2022-10-16T13:34:20;4.82;;;2.47;;
54805;SDS011;62866;55.776;37.496;2022-10-16T13:36:48;3.45;;;1.70;;
54805;SDS011;62866;55.776;37.496;2022-10-16T13:39:20;3.70;;;1.98;;
54805;SDS011;62866;55.776;37.496;2022-10-16T13:42:06;3.10;;;1.75;;
54805;SDS011;62866;55.776;37.496;2022-10-16T13:44:40;2.35;;;1.63;;
54805;SDS011;62866;55.776;37.496;2022-10-16T13:47:14;3.88;;;2.08;;
54805;SDS011;62866;55.776;37.496;2022-10-16T13:49:45;5.20;;;1.77;;
54805;SDS011;62866;55.776;37.496;2022-10-16T13:52:20;6.82;;;2.15;;
54805;SDS011;62866;55.776;37.496;2022-10-16T13:54:46;4.45;;;2.60;;
54805;SDS011;62866;55.776;37.496;2022-10-16T13:57:13;6.53;;;2.30;;
54805;SDS011;62866;55.776;37.496;2022-10-16T13:59:39;2.28;;;1.63;;
54805;SDS011;62866;55.776;37.496;2022-10-16T14:02:39;8.10;;;3.50;;
54805;SDS011;62866;55.776;37.496;2022-10-16T14:05:00;5.05;;;2.53;;
54805;SDS011;62866;55.776;37.496;2022-10-16T14:07:29;7.28;;;3.47;;
54805;SDS011;62866;55.776;37.496;2022-10-16T14:09:59;4.85;;;2.13;;
54805;SDS011;62866;55.776;37.496;2022-10-16T14:12:31;5.93;;;2.42;;
54805;SDS011;62866;55.776;37.496;2022-10-16T14:14:57;5.88;;;2.65;;
54805;SDS011;62866;55.776;37.496;2022-10-16T14:19:54;8.05;;;2.70;;
54805;SDS011;62866;55.776;37.496;2022-10-16T14:22:24;9.10;;;3.50;;
54805;SDS011;62866;55.776;37.496;2022-10-16T14:24:54;6.40;;;2.78;;
54805;SDS011;62866;55.776;37.496;2022-10-16T14:27:30;4.57;;;2.13;;
54805;SDS011;62866;55.776;37.496;2022-10-16T14:32:57;11.15;;;3.13;;
54805;SDS011;62866;55.776;37.496;2022-10-16T14:35:34;5.13;;;2.67;;
54805;SDS011;62866;55.776;37.496;2022-10-16T14:38:02;7.45;;;2.90;;
54805;SDS011;62866;55.776;37.496;2022-10-16T14:40:33;6.22;;;2.80;;
54805;SDS011;62866;55.776;37.496;2022-10-16T14:43:02;6.25;;;3.03;;
54805;SDS011;62866;55.776;37.496;2022-10-16T14:45:32;3.55;;;2.50;;
54805;SDS011;62866;55.776;37.496;2022-10-16T14:48:02;4.50;;;2.50;;
54805;SDS011;62866;55.776;37.496;2022-10-16T14:50:31;4.45;;;2.50;;
54805;SDS011;62866;55.776;37.496;2022-10-16T14:52:56;7.40;;;4.25;;
54805;SDS011;62866;55.776;37.496;2022-10-16T14:55:23;6.03;;;3.00;;
54805;SDS011;62866;55.776;37.496;2022-10-16T14:57:50;6.18;;;3.08;;
54805;SDS011;62866;55.776;37.496;2022-10-16T15:00:18;4.18;;;2.20;;
54805;SDS011;62866;55.776;37.496;2022-10-16T15:02:46;6.85;;;2.92;;
54805;SDS011;62866;55.776;37.496;2022-10-16T15:05:15;3.15;;;1.75;;
54805;SDS011;62866;55.776;37.496;2022-10-16T15:07:42;5.55;;;2.30;;
54805;SDS011;62866;55.776;37.496;2022-10-16T15:10:08;3.75;;;2.33;;
54805;SDS011;62866;55.776;37.496;2022-10-16T15:12:35;4.28;;;2.17;;
54805;SDS011;62866;55.776;37.496;2022-10-16T15:15:01;6.80;;;2.78;;
54805;SDS011;62866;55.776;37.496;2022-10-16T15:17:26;2.97;;;1.48;;
54805;SDS011;62866;55.776;37.496;2022-10-16T15:19:52;2.63;;;1.52;;
54805;SDS011;62866;55.776;37.496;2022-10-16T15:22:17;4.60;;;1.98;;
54805;SDS011;62866;55.776;37.496;2022-10-16T15:24:43;4.57;;;2.60;;
54805;SDS011;62866;55.776;37.496;2022-10-16T15:27:09;7.95;;;2.80;;
54805;SDS011;62866;55.776;37.496;2022-10-16T15:29:34;5.55;;;2.85;;
54805;SDS011;62866;55.776;37.496;2022-10-16T15:32:00;3.60;;;2.22;;
54805;SDS011;62866;55.776;37.496;2022-10-16T15:34:25;5.15;;;2.58;;
54805;SDS011;62866;55.776;37.496;2022-10-16T15:36:51;4.80;;;2.40;;
54805;SDS011;62866;55.776;37.496;2022-10-16T15:39:17;5.95;;;2.65;;
54805;SDS011;62866;55.776;37.496;2022-10-16T15:41:45;4.68;;;2.78;;
54805;SDS011;62866;55.776;37.496;2022-10-16T15:44:19;5.93;;;2.88;;
54805;SDS011;62866;55.776;37.496;2022-10-16T15:46:47;5.82;;;2.67;;
54805;SDS011;62866;55.776;37.496;2022-10-16T15:49:13;5.45;;;2.78;;
54805;SDS011;62866;55.776;37.496;2022-10-16T15:51:39;4.35;;;2.40;;
54805;SDS011;62866;55.776;37.496;2022-10-16T15:54:06;8.45;;;3.10;;
54805;SDS011;62866;55.776;37.496;2022-10-16T15:56:32;7.57;;;2.50;;
54805;SDS011;62866;55.776;37.496;2022-10-16T15:59:01;5.78;;;2.03;;
54805;SDS011;62866;55.776;37.496;2022-10-16T16:01:27;6.60;;;2.85;;
54805;SDS011;62866;55.776;37.496;2022-10-16T16:03:54;4.97;;;2.97;;
54805;SDS011;62866;55.776;37.496;2022-10-16T16:06:20;5.38;;;2.58;;
54805;SDS011;62866;55.776;37.496;2022-10-16T16:08:47;6.70;;;3.38;;
54805;SDS011;62866;55.776;37.496;2022-10-16T16:11:14;7.60;;;3.20;;
54805;SDS011;62866;55.776;37.496;2022-10-16T16:13:40;6.10;;;3.10;;
54805;SDS011;62866;55.776;37.496;2022-10-16T16:16:07;4.30;;;2.40;;
54805;SDS011;62866;55.776;37.496;2022-10-16T16:18:33;6.68;;;2.83;;
54805;SDS011;62866;55.776;37.496;2022-10-16T16:20:59;6.82;;;3.15;;
54805;SDS011;62866;55.776;37.496;2022-10-16T16:23:24;8.02;;;3.15;;
54805;SDS011;62866;55.776;37.496;2022-10-16T16:26:33;8.73;;;3.22;;
54805;SDS011;62866;55.776;37.496;2022-10-16T16:28:41;4.57;;;2.63;;
54805;SDS011;62866;55.776;37.496;2022-10-16T16:31:08;4.65;;;2.65;;
54805;SDS011;62866;55.776;37.496;2022-10-16T16:33:34;6.00;;;3.20;;
54805;SDS011;62866;55.776;37.496;2022-10-16T16:36:00;3.97;;;2.30;;
54805;SDS011;62866;55.776;37.496;2022-10-16T16:38:27;10.25;;;4.05;;
54805;SDS011;62866;55.776;37.496;2022-10-16T16:40:53;9.57;;;4.22;;
54805;SDS011;62866;55.776;37.496;2022-10-16T16:43:21;7.25;;;3.47;;
54805;SDS011;62866;55.776;37.496;2022-10-16T16:45:48;7.20;;;3.28;;
54805;SDS011;62866;55.776;37.496;2022-10-16T16:48:13;6.40;;;2.85;;
54805;SDS011;62866;55.776;37.496;2022-10-16T16:50:39;5.10;;;2.63;;